createdAt,value
2024-01-21T00:01:39.212Z,1.20
2024-01-21T00:03:42.747Z,1.10
2024-01-21T00:05:46.542Z,1.33
2024-01-21T00:07:50.388Z,1.08
2024-01-21T00:09:54.106Z,1.38
2024-01-21T00:11:57.733Z,1.38
2024-01-21T00:14:01.388Z,1.20
2024-01-21T00:16:04.865Z,1.80
2024-01-21T00:18:08.829Z,1.25
2024-01-21T00:20:14.580Z,1.13
2024-01-21T00:22:19.639Z,0.70
2024-01-21T00:24:23.034Z,1.23
2024-01-21T00:26:27.803Z,1.98
2024-01-21T00:28:31.135Z,1.25
2024-01-21T00:30:34.515Z,0.90
2024-01-21T00:32:37.928Z,1.20
2024-01-21T00:34:41.267Z,1.15
2024-01-21T00:36:45.018Z,1.33
2024-01-21T00:38:48.512Z,1.13
2024-01-21T00:40:51.814Z,1.20
2024-01-21T00:43:00.202Z,1.35
2024-01-21T00:45:03.591Z,1.00
2024-01-21T00:47:07.166Z,1.00
2024-01-21T00:49:11.035Z,1.63
2024-01-21T00:51:14.373Z,1.30
2024-01-21T00:53:17.879Z,1.15
2024-01-21T00:55:21.342Z,1.23
2024-01-21T00:57:23.849Z,0.90
2024-01-21T00:59:28.743Z,1.00
2024-01-21T01:01:32.946Z,1.00
2024-01-21T01:03:39.139Z,1.50
2024-01-21T01:05:42.464Z,1.23
2024-01-21T01:07:46.351Z,1.17
2024-01-21T01:09:49.899Z,1.58
2024-01-21T01:11:53.244Z,1.25
2024-01-21T01:13:56.913Z,1.35
2024-01-21T01:16:03.639Z,1.10
2024-01-21T01:18:07.231Z,1.13
2024-01-21T01:20:11.424Z,0.85
2024-01-21T01:22:14.956Z,1.10
2024-01-21T01:24:18.462Z,1.25
2024-01-21T01:26:21.911Z,1.75
2024-01-21T01:28:24.481Z,1.17
2024-01-21T01:30:28.277Z,1.50
2024-01-21T01:32:33.460Z,1.25
2024-01-21T01:34:37.000Z,1.45
2024-01-21T01:36:40.868Z,1.33
2024-01-21T01:38:44.037Z,1.05
2024-01-21T01:40:47.810Z,1.40
2024-01-21T01:42:59.362Z,1.30
2024-01-21T01:45:03.126Z,1.20
2024-01-21T01:47:07.004Z,1.05
2024-01-21T01:49:12.737Z,1.17
2024-01-21T01:51:16.573Z,1.45
2024-01-21T01:53:20.325Z,1.00
2024-01-21T01:55:24.034Z,0.90
2024-01-21T01:57:27.779Z,0.77
2024-01-21T01:59:34.304Z,0.90
2024-01-21T02:01:38.490Z,1.00
2024-01-21T02:03:42.346Z,1.33
2024-01-21T02:05:47.597Z,1.05
2024-01-21T02:07:51.203Z,1.05
2024-01-21T02:09:54.633Z,1.05
2024-01-21T02:11:58.973Z,2.15
2024-01-21T02:14:02.563Z,1.52
2024-01-21T02:16:06.772Z,1.10
2024-01-21T02:18:11.094Z,1.23
2024-01-21T02:20:14.672Z,1.00
2024-01-21T02:22:19.963Z,1.40
2024-01-21T02:24:31.846Z,1.52
2024-01-21T02:26:35.341Z,1.13
2024-01-21T02:28:38.837Z,0.90
2024-01-21T02:30:43.618Z,1.13
2024-01-21T02:32:46.091Z,1.40
2024-01-21T02:34:49.533Z,1.05
2024-01-21T02:36:52.090Z,1.30
2024-01-21T02:38:55.442Z,0.80
2024-01-21T02:41:00.594Z,1.10
2024-01-21T02:43:05.042Z,1.35
2024-01-21T02:45:09.533Z,0.65
2024-01-21T02:47:13.064Z,1.27
2024-01-21T02:49:18.091Z,1.52
2024-01-21T02:51:21.588Z,1.15
2024-01-21T02:53:24.929Z,1.15
2024-01-21T02:55:27.290Z,1.30
2024-01-21T02:57:32.328Z,1.33
2024-01-21T02:59:35.839Z,1.40
2024-01-21T03:01:42.373Z,1.20
2024-01-21T03:03:44.784Z,1.05
2024-01-21T03:05:48.255Z,1.40
2024-01-21T03:07:51.638Z,1.45
2024-01-21T03:09:54.906Z,1.08
2024-01-21T03:11:58.446Z,1.17
2024-01-21T03:14:03.194Z,0.85
2024-01-21T03:16:06.693Z,1.00
2024-01-21T03:18:10.282Z,0.70
2024-01-21T03:20:14.056Z,0.90
2024-01-21T03:22:18.517Z,0.93
2024-01-21T03:24:21.872Z,1.40
2024-01-21T03:26:25.182Z,1.65
2024-01-21T03:28:28.713Z,1.13
2024-01-21T03:30:33.621Z,1.05
2024-01-21T03:32:36.154Z,1.60
2024-01-21T03:34:43.786Z,1.10
2024-01-21T03:36:47.142Z,1.20
2024-01-21T03:38:51.938Z,0.98
2024-01-21T03:40:55.384Z,1.02
2024-01-21T03:42:58.711Z,1.10
2024-01-21T03:45:02.186Z,1.10
2024-01-21T03:47:07.335Z,1.15
2024-01-21T03:49:10.816Z,1.08
2024-01-21T03:51:14.422Z,1.08
2024-01-21T03:53:16.816Z,1.05
2024-01-21T03:55:23.400Z,1.15
2024-01-21T03:57:26.818Z,1.00
2024-01-21T03:59:33.373Z,1.50
2024-01-21T04:01:37.244Z,1.45
2024-01-21T04:03:42.541Z,1.23
2024-01-21T04:05:46.883Z,1.00
2024-01-21T04:07:50.477Z,0.88
2024-01-21T04:09:53.984Z,1.17
2024-01-21T04:11:57.687Z,1.00
2024-01-21T04:14:00.647Z,1.63
2024-01-21T04:16:11.300Z,0.73
2024-01-21T04:18:20.056Z,1.30
2024-01-21T04:20:26.530Z,1.05
2024-01-21T04:22:30.298Z,1.35
2024-01-21T04:24:33.832Z,1.30
2024-01-21T04:26:38.036Z,1.20
2024-01-21T04:28:41.664Z,1.33
2024-01-21T04:30:45.700Z,1.45
2024-01-21T04:32:49.291Z,0.95
2024-01-21T04:34:53.676Z,0.85
2024-01-21T04:36:58.387Z,0.85
2024-01-21T04:39:07.921Z,1.35
2024-01-21T04:41:17.443Z,1.63
2024-01-21T04:43:21.045Z,1.17
2024-01-21T04:45:24.471Z,1.23
2024-01-21T04:47:27.751Z,1.25
2024-01-21T04:49:31.741Z,0.90
2024-01-21T04:51:42.788Z,1.00
2024-01-21T04:53:47.187Z,0.93
2024-01-21T04:55:50.555Z,1.52
2024-01-21T04:57:57.410Z,1.10
2024-01-21T05:00:00.664Z,1.05
2024-01-21T05:02:04.431Z,1.35
2024-01-21T05:04:10.632Z,1.17
2024-01-21T05:06:13.900Z,1.20
2024-01-21T05:08:17.524Z,1.13
2024-01-21T05:10:22.825Z,1.17
2024-01-21T05:12:25.357Z,1.52
2024-01-21T05:14:28.776Z,0.80
2024-01-21T05:16:31.129Z,1.13
2024-01-21T05:18:34.484Z,0.90
2024-01-21T05:20:37.886Z,1.10
2024-01-21T05:22:40.242Z,1.17
2024-01-21T05:24:43.674Z,1.30
2024-01-21T05:26:48.582Z,1.27
2024-01-21T05:28:54.210Z,1.23
2024-01-21T05:30:57.510Z,1.10
2024-01-21T05:33:01.199Z,1.25
2024-01-21T05:35:04.481Z,1.02
2024-01-21T05:37:07.919Z,1.10
2024-01-21T05:39:11.364Z,0.65
2024-01-21T05:41:15.053Z,1.35
2024-01-21T05:43:19.668Z,1.27
2024-01-21T05:45:23.237Z,1.23
2024-01-21T05:47:26.810Z,1.23
2024-01-21T05:49:30.819Z,1.08
2024-01-21T05:51:34.123Z,1.00
2024-01-21T05:53:37.437Z,0.98
2024-01-21T05:55:41.229Z,1.00
2024-01-21T05:57:44.498Z,1.33
2024-01-21T05:59:49.449Z,0.90
2024-01-21T06:01:52.952Z,1.38
2024-01-21T06:03:56.412Z,1.20
2024-01-21T06:05:59.987Z,1.45
2024-01-21T06:08:03.267Z,1.25
2024-01-21T06:10:08.265Z,1.52
2024-01-21T06:12:11.719Z,1.02
2024-01-21T06:14:14.070Z,1.13
2024-01-21T06:16:20.211Z,1.42
2024-01-21T06:18:23.607Z,0.93
2024-01-21T06:20:26.972Z,1.10
2024-01-21T06:22:30.482Z,1.85
2024-01-21T06:24:36.867Z,1.15
2024-01-21T06:26:41.867Z,1.52
2024-01-21T06:28:45.144Z,1.52
2024-01-21T06:30:47.645Z,1.27
2024-01-21T06:32:59.556Z,1.35
2024-01-21T06:35:06.902Z,1.42
2024-01-21T06:37:10.331Z,1.33
2024-01-21T06:39:13.753Z,0.98
2024-01-21T06:41:17.580Z,1.40
2024-01-21T06:43:21.127Z,1.65
2024-01-21T06:45:25.050Z,0.90
2024-01-21T06:47:27.345Z,1.20
2024-01-21T06:49:32.153Z,1.15
2024-01-21T06:51:44.565Z,0.90
2024-01-21T06:53:47.898Z,0.80
2024-01-21T06:55:51.471Z,1.27
2024-01-21T06:57:54.777Z,1.15
2024-01-21T06:59:57.030Z,1.05
2024-01-21T07:02:00.297Z,1.30
2024-01-21T07:04:03.801Z,1.42
2024-01-21T07:06:11.627Z,1.67
2024-01-21T07:08:15.076Z,1.30
2024-01-21T07:10:17.552Z,1.40
2024-01-21T07:12:21.133Z,1.88
2024-01-21T07:14:24.383Z,1.20
2024-01-21T07:16:27.691Z,1.40
2024-01-21T07:18:31.384Z,1.65
2024-01-21T07:20:34.905Z,1.20
2024-01-21T07:22:39.820Z,1.80
2024-01-21T07:24:43.198Z,1.77
2024-01-21T07:26:46.957Z,1.25
2024-01-21T07:28:50.712Z,1.88
2024-01-21T07:30:54.025Z,1.60
2024-01-21T07:32:57.384Z,1.75
2024-01-21T07:35:02.196Z,0.90
2024-01-21T07:37:05.565Z,1.25
2024-01-21T07:39:10.389Z,1.52
2024-01-21T07:41:13.888Z,1.10
2024-01-21T07:43:17.701Z,0.90
2024-01-21T07:45:22.632Z,0.93
2024-01-21T07:47:26.635Z,1.50
2024-01-21T07:49:30.127Z,1.35
2024-01-21T07:51:33.677Z,1.33
2024-01-21T07:53:37.442Z,1.45
2024-01-21T07:55:42.655Z,1.33
2024-01-21T07:57:46.261Z,1.20
2024-01-21T07:59:49.611Z,1.20
2024-01-21T08:01:53.009Z,1.00
2024-01-21T08:03:56.546Z,1.00
2024-01-21T08:06:05.758Z,1.15
2024-01-21T08:08:09.349Z,1.35
2024-01-21T08:10:12.774Z,1.30
2024-01-21T08:12:17.965Z,1.88
2024-01-21T08:14:21.253Z,1.67
2024-01-21T08:16:24.640Z,1.30
2024-01-21T08:18:28.193Z,1.35
2024-01-21T08:20:31.695Z,1.10
2024-01-21T08:22:35.040Z,1.15
2024-01-21T08:24:39.790Z,1.35
2024-01-21T08:26:43.704Z,1.50
2024-01-21T08:28:48.422Z,1.20
2024-01-21T08:30:51.871Z,2.00
2024-01-21T08:32:55.277Z,1.00
2024-01-21T08:34:58.679Z,1.45
2024-01-21T08:37:02.276Z,1.13
2024-01-21T08:39:06.728Z,1.35
2024-01-21T08:41:10.117Z,1.00
2024-01-21T08:43:13.696Z,1.65
2024-01-21T08:45:18.744Z,1.00
2024-01-21T08:47:22.159Z,1.40
2024-01-21T08:49:27.499Z,1.40
2024-01-21T08:51:31.863Z,1.65
2024-01-21T08:53:35.203Z,1.60
2024-01-21T08:55:38.669Z,1.70
2024-01-21T08:57:42.215Z,2.17
2024-01-21T08:59:45.606Z,1.87
2024-01-21T09:01:51.116Z,2.00
2024-01-21T09:03:53.526Z,2.27
2024-01-21T09:05:56.881Z,2.03
2024-01-21T09:08:00.390Z,1.70
2024-01-21T09:10:05.370Z,2.40
2024-01-21T09:12:10.446Z,1.70
2024-01-21T09:14:13.866Z,1.63
2024-01-21T09:16:17.963Z,1.63
2024-01-21T09:18:23.715Z,1.97
2024-01-21T09:20:27.101Z,1.40
2024-01-21T09:22:29.474Z,1.63
2024-01-21T09:24:32.958Z,2.63
2024-01-21T09:26:36.665Z,2.00
2024-01-21T09:28:39.192Z,1.90
2024-01-21T09:30:42.756Z,1.80
2024-01-21T09:32:46.361Z,1.90
2024-01-21T09:34:51.492Z,1.67
2024-01-21T09:36:55.123Z,1.90
2024-01-21T09:38:57.637Z,1.73
2024-01-21T09:41:16.098Z,1.63
2024-01-21T09:43:19.574Z,1.90
2024-01-21T09:45:25.243Z,1.63
2024-01-21T09:47:28.998Z,1.50
2024-01-21T09:49:33.522Z,1.50
2024-01-21T09:51:39.251Z,2.07
2024-01-21T09:53:42.666Z,1.70
2024-01-21T09:55:46.699Z,1.90
2024-01-21T09:57:49.582Z,2.20
2024-01-21T09:59:52.942Z,1.70
2024-01-21T10:01:58.552Z,1.77
2024-01-21T10:04:02.051Z,1.80
2024-01-21T10:06:05.855Z,1.97
2024-01-21T10:08:12.609Z,1.70
2024-01-21T10:10:16.069Z,2.10
2024-01-21T10:12:20.816Z,1.60
2024-01-21T10:14:24.284Z,1.53
2024-01-21T10:16:28.072Z,1.50
2024-01-21T10:18:32.032Z,1.53
2024-01-21T10:20:37.799Z,1.53
2024-01-21T10:22:43.174Z,2.37
2024-01-21T10:24:50.142Z,2.40
2024-01-21T10:26:53.490Z,2.03
2024-01-21T10:28:56.855Z,1.67
2024-01-21T10:31:00.384Z,2.30
2024-01-21T10:33:03.977Z,1.73
2024-01-21T10:35:08.174Z,1.73
2024-01-21T10:37:15.744Z,2.33
2024-01-21T10:39:22.763Z,2.43
2024-01-21T10:41:33.191Z,1.90
2024-01-21T10:43:38.638Z,1.90
2024-01-21T10:45:44.463Z,1.90
2024-01-21T10:47:48.476Z,1.57
2024-01-21T10:49:52.048Z,1.60
2024-01-21T10:51:55.732Z,1.47
2024-01-21T10:54:00.771Z,1.77
2024-01-21T10:56:05.737Z,1.93
2024-01-21T10:58:11.046Z,1.70
2024-01-21T11:00:16.922Z,1.50
2024-01-21T11:02:20.671Z,1.87
2024-01-21T11:04:24.478Z,1.70
2024-01-21T11:06:27.817Z,1.60
2024-01-21T11:08:32.072Z,2.07
2024-01-21T11:10:40.024Z,1.43
2024-01-21T11:12:43.432Z,1.60
2024-01-21T11:14:47.949Z,2.10
2024-01-21T11:16:56.680Z,1.60
2024-01-21T11:19:00.238Z,2.20
2024-01-21T11:21:04.194Z,2.57
2024-01-21T11:23:16.807Z,3.00
2024-01-21T11:25:34.688Z,2.27
2024-01-21T11:27:38.358Z,2.13
2024-01-21T11:29:41.038Z,2.63
2024-01-21T11:31:50.181Z,2.27
2024-01-21T11:34:07.430Z,2.00
2024-01-21T11:36:11.794Z,2.60
2024-01-21T11:38:15.113Z,3.00
2024-01-21T11:40:18.535Z,2.97
2024-01-21T11:42:22.177Z,3.00
2024-01-21T11:44:29.264Z,2.93
2024-01-21T11:46:32.989Z,3.43
2024-01-21T11:48:37.789Z,3.07
2024-01-21T11:50:40.541Z,3.20
2024-01-21T11:52:43.881Z,3.50
2024-01-21T11:54:47.218Z,2.50
2024-01-21T11:56:51.135Z,3.20
2024-01-21T11:58:54.567Z,2.70
2024-01-21T12:00:57.921Z,3.13
2024-01-21T12:03:01.327Z,3.00
2024-01-21T12:05:08.221Z,3.00
2024-01-21T12:07:11.930Z,3.73
2024-01-21T12:09:15.788Z,3.53
2024-01-21T12:11:19.169Z,3.10
2024-01-21T12:13:23.006Z,3.40
2024-01-21T12:15:26.985Z,2.97
2024-01-21T12:17:30.419Z,4.10
2024-01-21T12:19:34.046Z,3.57
2024-01-21T12:21:39.024Z,3.43
2024-01-21T12:23:41.501Z,3.43
2024-01-21T12:25:44.790Z,3.93
2024-01-21T12:27:48.953Z,4.30
2024-01-21T12:29:55.297Z,3.90
2024-01-21T12:31:58.557Z,3.53
2024-01-21T12:34:03.689Z,4.07
2024-01-21T12:36:07.454Z,3.80
2024-01-21T12:38:12.628Z,4.53
2024-01-21T12:40:16.044Z,3.93
2024-01-21T12:42:19.422Z,5.30
2024-01-21T12:44:22.755Z,4.37
2024-01-21T12:46:26.271Z,5.13
2024-01-21T12:48:28.764Z,5.37
2024-01-21T12:50:32.315Z,4.40
2024-01-21T12:52:35.604Z,5.30
2024-01-21T12:54:41.379Z,5.50
2024-01-21T12:56:44.781Z,5.80
2024-01-21T12:58:48.970Z,5.03
2024-01-21T13:00:52.336Z,6.20
2024-01-21T13:02:55.722Z,6.33
2024-01-21T13:04:59.076Z,6.37
2024-01-21T13:07:02.470Z,6.80
2024-01-21T13:09:06.649Z,5.57
2024-01-21T13:11:11.761Z,6.30
2024-01-21T13:13:15.174Z,6.70
2024-01-21T13:15:18.515Z,6.00
2024-01-21T13:17:22.448Z,6.80
2024-01-21T13:19:25.060Z,6.47
2024-01-21T13:21:28.994Z,6.47
2024-01-21T13:23:32.370Z,6.13
2024-01-21T13:25:36.375Z,6.87
2024-01-21T13:27:44.478Z,5.07
2024-01-21T13:30:05.438Z,5.30
2024-01-21T13:32:08.947Z,3.43
2024-01-21T13:34:12.681Z,3.27
2024-01-21T13:36:16.052Z,4.23
2024-01-21T13:38:22.061Z,3.90
2024-01-21T13:40:25.476Z,4.00
2024-01-21T13:42:27.944Z,3.83
2024-01-21T13:44:35.073Z,3.50
2024-01-21T13:46:38.641Z,2.90
2024-01-21T13:48:42.384Z,3.63
2024-01-21T13:50:47.209Z,3.30
2024-01-21T13:52:51.151Z,3.10
2024-01-21T13:54:53.469Z,4.20
2024-01-21T13:56:57.368Z,4.30
2024-01-21T13:59:00.717Z,3.57
2024-01-21T14:01:06.047Z,3.60
2024-01-21T14:03:09.571Z,3.80
2024-01-21T14:05:13.089Z,3.50
2024-01-21T14:07:16.578Z,3.57
2024-01-21T14:09:19.959Z,3.90
2024-01-21T14:11:23.357Z,3.10
2024-01-21T14:13:27.230Z,3.03
2024-01-21T14:15:30.975Z,3.60
2024-01-21T14:17:36.557Z,3.30
2024-01-21T14:19:43.604Z,3.60
2024-01-21T14:21:47.200Z,3.33
2024-01-21T14:23:50.593Z,3.07
2024-01-21T14:25:57.403Z,2.77
2024-01-21T14:28:00.899Z,2.53
2024-01-21T14:30:06.035Z,2.30
2024-01-21T14:32:10.352Z,3.37
2024-01-21T14:34:15.181Z,2.53
2024-01-21T14:36:18.697Z,2.83
2024-01-21T14:38:22.289Z,3.00
2024-01-21T14:40:27.265Z,3.40
2024-01-21T14:42:31.066Z,2.25
2024-01-21T14:44:34.592Z,3.08
2024-01-21T14:46:37.948Z,2.90
2024-01-21T14:48:41.652Z,2.53
2024-01-21T14:50:46.401Z,2.45
2024-01-21T14:52:49.829Z,2.83
2024-01-21T14:54:53.273Z,2.78
2024-01-21T14:56:57.099Z,2.85
2024-01-21T14:59:01.027Z,2.63
2024-01-21T15:01:04.520Z,2.50
2024-01-21T15:03:07.976Z,2.30
2024-01-21T15:05:11.635Z,2.50
2024-01-21T15:07:16.704Z,2.53
2024-01-21T15:09:19.173Z,3.40
2024-01-21T15:11:24.229Z,2.78
2024-01-21T15:13:31.939Z,2.63
2024-01-21T15:15:36.408Z,2.40
2024-01-21T15:17:39.767Z,2.40
2024-01-21T15:19:45.027Z,2.63
2024-01-21T15:21:48.701Z,2.33
2024-01-21T15:23:53.875Z,3.28
2024-01-21T15:26:01.094Z,3.20
2024-01-21T15:28:04.555Z,2.33
2024-01-21T15:30:09.355Z,2.42
2024-01-21T15:32:13.305Z,2.33
2024-01-21T15:34:16.825Z,3.08
2024-01-21T15:36:20.764Z,1.75
2024-01-21T15:38:23.031Z,2.95
2024-01-21T15:40:27.731Z,2.40
2024-01-21T15:42:31.087Z,2.90
2024-01-21T15:44:45.031Z,2.40
2024-01-21T15:46:48.676Z,2.17
2024-01-21T15:48:51.339Z,2.60
2024-01-21T15:50:55.611Z,2.40
2024-01-21T15:52:58.907Z,2.30
2024-01-21T15:55:02.227Z,3.28
2024-01-21T15:57:07.004Z,3.63
2024-01-21T15:59:10.877Z,4.30
2024-01-21T16:01:14.257Z,4.82
2024-01-21T16:03:17.777Z,5.15
2024-01-21T16:05:21.161Z,6.10
2024-01-21T16:07:23.629Z,11.77
2024-01-21T16:09:26.978Z,13.70
2024-01-21T16:11:30.552Z,11.50
2024-01-21T16:13:37.347Z,9.57
2024-01-21T16:15:48.171Z,7.68
2024-01-21T16:17:57.779Z,7.70
2024-01-21T16:20:01.167Z,9.25
2024-01-21T16:22:04.934Z,8.88
2024-01-21T16:24:08.815Z,9.98
2024-01-21T16:26:12.844Z,8.70
2024-01-21T16:28:16.472Z,7.13
2024-01-21T16:30:22.138Z,6.22
2024-01-21T16:32:25.761Z,7.50
2024-01-21T16:34:30.802Z,5.80
2024-01-21T16:36:38.332Z,7.25
2024-01-21T16:38:41.996Z,6.68
2024-01-21T16:40:45.573Z,6.43
2024-01-21T16:42:49.214Z,7.95
2024-01-21T16:44:53.609Z,9.20
2024-01-21T16:46:59.475Z,8.75
2024-01-21T16:49:03.655Z,9.15
2024-01-21T16:51:11.852Z,8.45
2024-01-21T16:53:17.218Z,8.98
2024-01-21T16:55:20.698Z,8.77
2024-01-21T16:57:24.296Z,8.10
2024-01-21T16:59:30.478Z,9.18
2024-01-21T17:01:36.214Z,9.02
2024-01-21T17:03:41.716Z,8.48
2024-01-21T17:05:45.172Z,7.80
2024-01-21T17:07:47.638Z,10.73
2024-01-21T17:09:52.796Z,10.55
2024-01-21T17:11:57.509Z,6.28
2024-01-21T17:14:00.854Z,5.15
2024-01-21T17:16:04.393Z,6.15
2024-01-21T17:18:18.191Z,5.97
2024-01-21T17:20:23.101Z,6.28
2024-01-21T17:22:26.625Z,7.53
2024-01-21T17:24:30.370Z,6.63
2024-01-21T17:26:33.040Z,8.02
2024-01-21T17:28:36.404Z,6.72
2024-01-21T17:30:39.798Z,5.80
2024-01-21T17:32:43.279Z,7.18
2024-01-21T17:34:46.753Z,7.60
2024-01-21T17:36:53.279Z,8.63
2024-01-21T17:38:56.809Z,11.00
2024-01-21T17:40:59.191Z,29.27
2024-01-21T17:43:03.478Z,29.98
2024-01-21T17:45:10.081Z,27.83
2024-01-21T17:47:13.264Z,28.52
2024-01-21T17:49:16.695Z,28.75
2024-01-21T17:51:20.155Z,20.60
2024-01-21T17:53:24.956Z,17.58
2024-01-21T17:55:27.536Z,17.05
2024-01-21T17:57:32.852Z,22.55
2024-01-21T17:59:36.292Z,19.40
2024-01-21T18:01:40.332Z,20.48
2024-01-21T18:03:43.670Z,18.70
2024-01-21T18:05:53.728Z,16.70
2024-01-21T18:08:00.867Z,16.92
2024-01-21T18:10:06.454Z,15.82
2024-01-21T18:12:10.257Z,13.95
2024-01-21T18:14:13.869Z,15.02
2024-01-21T18:16:20.106Z,14.77
2024-01-21T18:18:24.969Z,15.27
2024-01-21T18:20:28.555Z,13.85
2024-01-21T18:22:33.118Z,14.23
2024-01-21T18:24:36.544Z,16.63
2024-01-21T18:26:41.415Z,14.98
2024-01-21T18:28:46.394Z,13.93
2024-01-21T18:30:51.094Z,13.20
2024-01-21T18:32:54.426Z,11.40
2024-01-21T18:34:56.751Z,13.52
2024-01-21T18:37:03.165Z,13.57
2024-01-21T18:39:06.770Z,14.82
2024-01-21T18:41:12.705Z,14.30
2024-01-21T18:43:16.896Z,14.82
2024-01-21T18:45:20.316Z,17.42
2024-01-21T18:47:23.720Z,16.25
2024-01-21T18:49:27.535Z,17.80
2024-01-21T18:51:30.970Z,16.98
2024-01-21T18:53:34.692Z,16.25
2024-01-21T18:55:39.610Z,16.75
2024-01-21T18:57:43.093Z,15.70
2024-01-21T18:59:50.413Z,14.43
2024-01-21T19:01:53.955Z,12.57
2024-01-21T19:03:57.797Z,13.10
2024-01-21T19:06:02.715Z,12.30
2024-01-21T19:08:06.963Z,12.73
2024-01-21T19:10:11.297Z,14.10
2024-01-21T19:12:20.689Z,13.13
2024-01-21T19:14:24.473Z,12.10
2024-01-21T19:16:29.305Z,11.65
2024-01-21T19:18:32.722Z,10.85
2024-01-21T19:20:35.821Z,10.60
2024-01-21T19:22:39.332Z,8.95
2024-01-21T19:24:42.983Z,10.35
2024-01-21T19:26:46.922Z,9.50
2024-01-21T19:28:54.060Z,10.07
2024-01-21T19:30:57.862Z,10.27
2024-01-21T19:33:02.685Z,11.23
2024-01-21T19:35:06.831Z,11.30
2024-01-21T19:37:09.299Z,11.25
2024-01-21T19:39:12.707Z,9.40
2024-01-21T19:41:16.180Z,8.75
2024-01-21T19:43:23.646Z,9.85
2024-01-21T19:45:27.098Z,8.95
2024-01-21T19:47:30.608Z,7.75
2024-01-21T19:49:34.880Z,8.13
2024-01-21T19:51:38.361Z,6.57
2024-01-21T19:53:42.629Z,7.35
2024-01-21T19:55:46.155Z,6.25
2024-01-21T19:57:51.190Z,6.22
2024-01-21T19:59:54.715Z,6.75
2024-01-21T20:01:58.081Z,7.85
2024-01-21T20:04:01.627Z,7.70
2024-01-21T20:06:07.282Z,7.05
2024-01-21T20:08:12.891Z,7.82
2024-01-21T20:10:16.399Z,6.47
2024-01-21T20:12:19.642Z,5.45
2024-01-21T20:14:22.976Z,8.25
2024-01-21T20:16:25.432Z,6.40
2024-01-21T20:18:29.691Z,5.40
2024-01-21T20:20:32.113Z,5.40
2024-01-21T20:22:36.913Z,6.20
2024-01-21T20:24:40.115Z,6.47
2024-01-21T20:26:43.411Z,5.80
2024-01-21T20:28:45.873Z,5.72
2024-01-21T20:30:49.191Z,5.13
2024-01-21T20:32:52.716Z,6.75
2024-01-21T20:34:57.503Z,5.75
2024-01-21T20:37:01.113Z,5.13
2024-01-21T20:39:06.582Z,5.07
2024-01-21T20:41:10.719Z,4.97
2024-01-21T20:43:14.121Z,5.03
2024-01-21T20:45:17.919Z,5.13
2024-01-21T20:47:21.388Z,5.03
2024-01-21T20:49:24.898Z,6.18
2024-01-21T20:51:27.185Z,5.95
2024-01-21T20:53:30.668Z,5.00
2024-01-21T20:55:35.829Z,4.38
2024-01-21T20:57:38.684Z,5.90
2024-01-21T20:59:42.252Z,6.15
2024-01-21T21:01:45.984Z,4.57
2024-01-21T21:03:49.540Z,5.20
2024-01-21T21:05:53.167Z,5.90
2024-01-21T21:07:56.998Z,5.32
2024-01-21T21:10:00.891Z,5.47
2024-01-21T21:12:07.169Z,4.18
2024-01-21T21:14:10.532Z,5.60
2024-01-21T21:16:18.968Z,5.90
2024-01-21T21:18:22.591Z,5.55
2024-01-21T21:20:26.150Z,6.60
2024-01-21T21:22:30.249Z,8.68
2024-01-21T21:24:33.829Z,7.32
2024-01-21T21:26:37.775Z,7.93
2024-01-21T21:28:42.931Z,8.10
2024-01-21T21:30:46.546Z,8.75
2024-01-21T21:32:50.197Z,10.00
2024-01-21T21:34:53.640Z,8.10
2024-01-21T21:36:56.902Z,6.35
2024-01-21T21:39:00.206Z,6.35
2024-01-21T21:41:04.394Z,6.63
2024-01-21T21:43:07.798Z,7.82
2024-01-21T21:45:14.016Z,7.13
2024-01-21T21:47:18.637Z,8.57
2024-01-21T21:49:22.665Z,9.68
2024-01-21T21:51:26.643Z,6.57
2024-01-21T21:53:30.376Z,8.43
2024-01-21T21:55:34.234Z,7.88
2024-01-21T21:57:37.903Z,7.07
2024-01-21T21:59:41.437Z,8.30
2024-01-21T22:01:46.290Z,9.68
2024-01-21T22:03:50.610Z,12.15
2024-01-21T22:05:54.545Z,13.32
2024-01-21T22:07:56.927Z,14.50
2024-01-21T22:10:00.768Z,15.30
2024-01-21T22:12:06.154Z,19.10
2024-01-21T22:14:09.614Z,27.02
2024-01-21T22:16:12.868Z,25.00
2024-01-21T22:18:17.868Z,24.15
2024-01-21T22:20:21.279Z,27.35
2024-01-21T22:22:25.040Z,25.42
2024-01-21T22:24:28.459Z,25.80
2024-01-21T22:26:32.045Z,23.90
2024-01-21T22:28:35.718Z,27.45
2024-01-21T22:30:39.485Z,25.50
2024-01-21T22:32:43.341Z,24.33
2024-01-21T22:34:48.466Z,21.95
2024-01-21T22:36:51.699Z,20.45
2024-01-21T22:38:55.114Z,20.70
2024-01-21T22:40:58.569Z,19.40
2024-01-21T22:43:01.921Z,18.35
2024-01-21T22:45:06.019Z,21.05
2024-01-21T22:47:09.393Z,19.55
2024-01-21T22:49:13.030Z,19.13
2024-01-21T22:51:18.232Z,18.17
2024-01-21T22:53:22.805Z,20.77
2024-01-21T22:55:26.387Z,18.67
2024-01-21T22:57:29.633Z,20.70
2024-01-21T22:59:33.006Z,18.30
2024-01-21T23:01:36.778Z,13.63
2024-01-21T23:03:40.284Z,16.00
2024-01-21T23:05:43.772Z,16.45
2024-01-21T23:07:48.578Z,15.05
2024-01-21T23:09:51.956Z,12.25
2024-01-21T23:11:55.600Z,13.10
2024-01-21T23:13:58.819Z,13.18
2024-01-21T23:16:02.216Z,14.00
2024-01-21T23:18:06.100Z,13.90
2024-01-21T23:20:10.180Z,13.48
2024-01-21T23:22:13.554Z,11.23
2024-01-21T23:24:18.412Z,11.93
2024-01-21T23:26:21.684Z,10.52
2024-01-21T23:28:25.253Z,12.18
2024-01-21T23:30:27.484Z,10.30
2024-01-21T23:32:30.729Z,9.77
2024-01-21T23:34:33.793Z,9.27
2024-01-21T23:36:37.291Z,9.77
2024-01-21T23:38:40.648Z,8.65
2024-01-21T23:40:45.682Z,10.98
2024-01-21T23:42:48.978Z,9.35
2024-01-21T23:44:52.283Z,10.52
2024-01-21T23:46:56.003Z,11.25
2024-01-21T23:48:59.562Z,10.80
2024-01-21T23:51:01.879Z,9.20
2024-01-21T23:53:05.587Z,8.15
2024-01-21T23:55:09.481Z,8.73
2024-01-21T23:57:14.113Z,9.80
2024-01-21T23:59:18.384Z,9.00
